Time;durP1;ratioP1;P1;durP2;ratioP2;P2;SDS_P1;SDS_P2;PMS_P1;PMS_P2;Temp;Humidity;BMP_temperature;BMP_pressure;BME280_temperature;BME280_humidity;BME280_pressure;Samples;Min_cycle;Max_cycle;Signal;HPM_P1;HPM_P2
2021/09/20 00:01:10;;;;;;;3.22;2.78;;;20.20;68.00;;;;;;4208461;28;20052;-60
2021/09/20 00:03:32;;;;;;;3.17;2.80;;;20.10;69.10;;;;;;4190607;28;20125;-60
2021/09/20 00:05:54;;;;;;;2.72;2.55;;;20.20;68.30;;;;;;4207276;28;20056;-59
2021/09/20 00:08:16;;;;;;;3.38;3.08;;;20.10;67.60;;;;;;4207473;28;20055;-59
2021/09/20 00:10:38;;;;;;;2.78;2.58;;;20.10;67.60;;;;;;4207636;28;20040;-60
2021/09/20 00:13:02;;;;;;;3.20;3.00;;;20.10;67.50;;;;;;4207456;28;20032;-60
2021/09/20 00:15:24;;;;;;;3.65;3.05;;;20.10;67.80;;;;;;4207392;28;20471;-60
2021/09/20 00:17:46;;;;;;;2.92;2.65;;;20.10;68.10;;;;;;4207353;28;20082;-59
2021/09/20 00:20:11;;;;;;;3.38;3.17;;;20.10;68.10;;;;;;4207712;28;20567;-60
2021/09/20 00:22:33;;;;;;;4.20;3.15;;;20.10;67.90;;;;;;4207301;28;20048;-60
2021/09/20 00:24:55;;;;;;;3.10;2.90;;;20.10;67.90;;;;;;4207333;28;20067;-60
2021/09/20 00:27:17;;;;;;;3.42;3.13;;;20.10;68.00;;;;;;4207230;28;20047;-60
2021/09/20 00:29:41;;;;;;;2.78;2.58;;;20.00;67.80;;;;;;4207131;28;20056;-60
2021/09/20 00:32:03;;;;;;;3.00;2.80;;;20.00;67.50;;;;;;4207431;28;20056;-60
2021/09/20 00:34:25;;;;;;;2.95;2.72;;;20.00;67.30;;;;;;4207197;28;20104;-60
2021/09/20 00:36:48;;;;;;;2.67;2.58;;;20.00;67.90;;;;;;4207164;28;20497;-60
2021/09/20 00:39:10;;;;;;;3.20;3.00;;;20.10;68.20;;;;;;4209226;28;20044;-60
2021/09/20 00:41:32;;;;;;;3.20;3.00;;;20.00;67.50;;;;;;4209204;28;20048;-60
2021/09/20 00:43:54;;;;;;;3.28;3.08;;;20.00;67.30;;;;;;4208971;28;20056;-61
2021/09/20 00:46:18;;;;;;;2.83;2.63;;;20.00;67.60;;;;;;4209345;28;20059;-60
2021/09/20 00:48:40;;;;;;;3.08;2.88;;;20.00;67.60;;;;;;4210369;28;20048;-60
2021/09/20 00:51:02;;;;;;;3.80;3.40;;;20.00;67.80;;;;;;4209720;28;20043;-59
2021/09/20 00:53:25;;;;;;;3.70;2.78;;;20.00;67.00;;;;;;4210823;28;20109;-60
2021/09/20 00:55:47;;;;;;;3.13;2.85;;;19.90;66.90;;;;;;4209463;28;23045;-60
2021/09/20 00:58:10;;;;;;;2.90;2.70;;;19.90;68.20;;;;;;4209465;28;20094;-60
2021/09/20 01:00:32;;;;;;;2.63;2.53;;;19.90;67.60;;;;;;4210636;28;20098;-59
2021/09/20 01:02:55;;;;;;;3.22;2.90;;;19.90;68.60;;;;;;4210223;28;20052;-59
2021/09/20 01:05:17;;;;;;;2.90;2.70;;;19.90;68.30;;;;;;4208352;28;20054;-59
2021/09/20 01:07:40;;;;;;;2.97;2.78;;;19.90;69.20;;;;;;4210388;28;20143;-59
2021/09/20 01:10:02;;;;;;;2.80;2.53;;;19.90;69.10;;;;;;4210369;28;20070;-60
2021/09/20 01:12:25;;;;;;;2.83;2.50;;;19.90;69.00;;;;;;4210106;28;20048;-59
2021/09/20 01:14:47;;;;;;;2.90;2.70;;;19.90;69.30;;;;;;4210160;28;20047;-60
2021/09/20 01:17:09;;;;;;;2.97;2.78;;;19.90;69.50;;;;;;4209895;28;20157;-60
2021/09/20 01:19:33;;;;;;;3.50;3.20;;;19.90;69.20;;;;;;4210140;28;20047;-60
2021/09/20 01:22:01;;;;;;;2.90;2.50;;;19.90;69.40;;;;;;4210080;28;20040;-60
2021/09/20 01:24:25;;;;;;;3.42;3.00;;;19.80;69.30;;;;;;4209418;28;20044;-60
2021/09/20 01:26:48;;;;;;;2.90;2.53;;;19.80;69.50;;;;;;4209841;28;20079;-60
2021/09/20 01:29:10;;;;;;;3.05;2.80;;;19.90;69.70;;;;;;4209871;28;20071;-60
2021/09/20 01:31:33;;;;;;;3.45;3.00;;;19.80;69.20;;;;;;4210122;28;20044;-60
2021/09/20 01:33:54;;;;;;;3.30;3.00;;;19.80;69.30;;;;;;4210219;28;20436;-60
2021/09/20 01:36:16;;;;;;;3.63;2.70;;;19.80;69.60;;;;;;4209849;28;20056;-60
2021/09/20 01:38:38;;;;;;;2.63;2.42;;;19.80;69.40;;;;;;4210459;28;20052;-60
2021/09/20 01:41:02;;;;;;;3.00;2.80;;;19.80;69.00;;;;;;4210278;28;20047;-59
2021/09/20 01:43:24;;;;;;;3.63;3.00;;;19.80;69.30;;;;;;4209572;28;20131;-60
2021/09/20 01:45:46;;;;;;;2.53;2.42;;;19.80;69.40;;;;;;4210137;28;20058;-60
2021/09/20 01:48:09;;;;;;;2.92;2.58;;;19.80;69.30;;;;;;4209753;28;20052;-60
2021/09/20 01:50:31;;;;;;;2.88;2.67;;;19.80;70.30;;;;;;4210000;28;20178;-60
2021/09/20 01:52:53;;;;;;;2.80;2.60;;;19.80;69.90;;;;;;4209990;28;20683;-60
2021/09/20 01:55:16;;;;;;;2.97;2.58;;;19.80;69.90;;;;;;4209335;28;20102;-60
2021/09/20 01:57:39;;;;;;;2.75;2.58;;;19.80;69.90;;;;;;4209012;28;20040;-60
2021/09/20 02:00:02;;;;;;;3.15;2.95;;;19.80;70.00;;;;;;4208867;28;20038;-60
2021/09/20 02:02:31;;;;;;;6.40;2.85;;;19.80;70.00;;;;;;4209073;28;20494;-59
2021/09/20 02:04:53;;;;;;;2.72;2.53;;;19.80;70.10;;;;;;4208525;28;20063;-61
2021/09/20 02:07:15;;;;;;;3.03;2.58;;;19.80;70.30;;;;;;4209190;28;20097;-60
2021/09/20 02:09:37;;;;;;;3.50;2.95;;;19.80;70.60;;;;;;4209388;28;20052;-60
2021/09/20 02:12:00;;;;;;;3.47;2.85;;;19.80;70.40;;;;;;4209721;28;20044;-61
2021/09/20 02:14:24;;;;;;;2.97;2.58;;;19.70;69.80;;;;;;4209502;28;20071;-61
2021/09/20 02:16:48;;;;;;;2.90;2.65;;;19.80;69.90;;;;;;4208602;28;20409;-60
2021/09/20 02:19:12;;;;;;;3.65;2.40;;;19.70;70.30;;;;;;4209301;28;20044;-60
2021/09/20 02:22:00;;;;;;;3.47;2.80;;;19.70;70.10;;;;;;4209647;28;20485;-60
2021/09/20 02:24:41;;;;;;;3.30;2.72;;;19.70;70.40;;;;;;4192508;28;20334;-59
2021/09/20 02:27:05;;;;;;;6.10;3.10;;;19.70;70.60;;;;;;4192486;28;20072;-61
2021/09/20 02:29:29;;;;;;;3.75;3.22;;;19.70;70.00;;;;;;4192487;28;20052;-59
2021/09/20 02:31:51;;;;;;;2.55;2.45;;;19.70;69.70;;;;;;4192806;28;20135;-60
2021/09/20 02:34:13;;;;;;;2.80;2.60;;;19.70;70.10;;;;;;4191065;28;20074;-60
2021/09/20 02:36:36;;;;;;;2.80;2.60;;;19.70;70.30;;;;;;4203858;28;20048;-60
2021/09/20 02:38:58;;;;;;;3.50;3.20;;;19.60;70.60;;;;;;4209071;28;20051;-60
2021/09/20 02:41:20;;;;;;;2.90;2.70;;;19.70;70.90;;;;;;4209612;28;20483;-60
2021/09/20 02:43:43;;;;;;;2.67;2.47;;;19.60;71.10;;;;;;4208726;28;20093;-60
2021/09/20 02:46:06;;;;;;;3.55;2.88;;;19.60;71.00;;;;;;4209344;28;20074;-60
2021/09/20 02:48:28;;;;;;;3.50;3.20;;;19.70;70.70;;;;;;4209286;28;20048;-60
2021/09/20 02:50:50;;;;;;;3.78;2.50;;;19.60;70.70;;;;;;4192075;28;20044;-61
2021/09/20 02:53:13;;;;;;;2.90;2.67;;;19.60;70.30;;;;;;4208907;28;20052;-61
2021/09/20 02:55:35;;;;;;;2.90;2.78;;;19.60;70.10;;;;;;4208351;28;20056;-61
2021/09/20 02:57:56;;;;;;;2.95;2.75;;;19.60;70.60;;;;;;4200445;28;20063;-60
2021/09/20 03:00:19;;;;;;;3.50;2.90;;;19.60;70.90;;;;;;4208118;28;20539;-61
2021/09/20 03:02:42;;;;;;;3.72;3.30;;;19.60;70.50;;;;;;4208229;28;20048;-60
2021/09/20 03:05:06;;;;;;;3.55;3.33;;;19.60;70.50;;;;;;4208597;28;20048;-61
2021/09/20 03:07:28;;;;;;;3.70;3.40;;;19.60;70.60;;;;;;4208543;28;20502;-60
2021/09/20 03:09:50;;;;;;;2.88;2.67;;;19.60;70.20;;;;;;4208590;28;20051;-60
2021/09/20 03:12:12;;;;;;;3.08;2.70;;;19.60;70.70;;;;;;4208948;28;20052;-60
2021/09/20 03:14:35;;;;;;;2.97;2.72;;;19.60;71.30;;;;;;4208344;28;20090;-61
2021/09/20 03:16:57;;;;;;;3.83;2.20;;;19.60;70.80;;;;;;4194879;28;20051;-61
2021/09/20 03:19:20;;;;;;;2.92;2.72;;;19.50;70.50;;;;;;4208551;28;20055;-61
2021/09/20 03:21:42;;;;;;;3.45;2.92;;;19.50;70.90;;;;;;4207847;28;20614;-60
2021/09/20 03:24:05;;;;;;;3.13;2.85;;;19.50;71.30;;;;;;4208264;28;20139;-61
2021/09/20 03:26:27;;;;;;;3.17;2.75;;;19.50;70.80;;;;;;4208204;28;20040;-61
2021/09/20 03:28:49;;;;;;;2.80;2.60;;;19.50;71.40;;;;;;4208024;28;20047;-61
2021/09/20 03:31:13;;;;;;;3.28;2.97;;;19.50;71.70;;;;;;4208221;28;20075;-61
2021/09/20 03:33:35;;;;;;;2.67;2.47;;;19.50;72.80;;;;;;4208188;28;20040;-60
2021/09/20 03:35:58;;;;;;;3.20;2.97;;;19.50;71.40;;;;;;4207802;28;20055;-61
2021/09/20 03:38:20;;;;;;;2.75;2.55;;;19.50;71.40;;;;;;4207940;28;20048;-61
2021/09/20 03:40:42;;;;;;;2.90;2.70;;;19.50;71.80;;;;;;4208037;28;20605;-59
2021/09/20 03:43:04;;;;;;;2.53;2.42;;;19.50;71.80;;;;;;4207323;28;20494;-60
2021/09/20 03:45:26;;;;;;;4.15;3.28;;;19.50;71.80;;;;;;4208034;28;20097;-60
2021/09/20 03:47:48;;;;;;;4.10;2.92;;;19.50;71.70;;;;;;4207923;28;20052;-61
2021/09/20 03:50:12;;;;;;;2.78;2.58;;;19.50;71.90;;;;;;4207692;28;20052;-61
2021/09/20 03:52:35;;;;;;;3.20;2.55;;;19.50;71.40;;;;;;4207935;28;20056;-61
2021/09/20 03:54:58;;;;;;;3.63;2.90;;;19.50;71.80;;;;;;4207507;28;20052;-60
2021/09/20 03:57:19;;;;;;;3.67;3.08;;;19.50;72.00;;;;;;4207963;28;20048;-60
2021/09/20 03:59:42;;;;;;;2.80;2.60;;;19.50;72.00;;;;;;4207531;28;20121;-60
2021/09/20 04:02:04;;;;;;;4.05;2.55;;;19.50;72.00;;;;;;4207697;28;20043;-60
2021/09/20 04:04:26;;;;;;;2.90;2.70;;;19.40;72.00;;;;;;4207610;28;20052;-60
2021/09/20 04:06:50;;;;;;;2.53;2.38;;;19.50;72.10;;;;;;4207762;28;20044;-60
2021/09/20 04:09:14;;;;;;;3.00;2.60;;;19.50;72.50;;;;;;4207603;28;20421;-60
2021/09/20 04:11:40;;;;;;;3.08;2.88;;;19.40;72.40;;;;;;4206995;28;20079;-61
2021/09/20 04:14:02;;;;;;;3.15;2.90;;;19.40;72.60;;;;;;4206720;28;20486;-61
2021/09/20 04:16:24;;;;;;;3.10;2.80;;;19.40;72.40;;;;;;4193329;28;20044;-61
2021/09/20 04:18:46;;;;;;;2.55;2.45;;;19.40;72.40;;;;;;4207637;28;20051;-60
2021/09/20 04:21:08;;;;;;;4.03;2.53;;;19.40;72.20;;;;;;4207069;28;20532;-61
2021/09/20 04:23:30;;;;;;;2.90;2.70;;;19.40;72.30;;;;;;4207827;28;20074;-61
2021/09/20 04:25:54;;;;;;;3.10;2.90;;;19.40;72.10;;;;;;4208027;28;20067;-61
2021/09/20 04:28:17;;;;;;;2.83;2.63;;;19.40;72.10;;;;;;4208002;28;20048;-61
2021/09/20 04:30:43;;;;;;;2.63;2.53;;;19.40;71.90;;;;;;4208004;28;20064;-61
2021/09/20 04:33:05;;;;;;;2.65;2.50;;;19.40;71.20;;;;;;4207559;28;20044;-61
2021/09/20 04:35:27;;;;;;;2.83;2.63;;;19.40;72.50;;;;;;4207615;28;20082;-60
2021/09/20 04:37:49;;;;;;;2.70;2.50;;;19.40;72.80;;;;;;4207831;28;20059;-60
2021/09/20 04:40:13;;;;;;;3.10;2.80;;;19.40;73.00;;;;;;4207031;28;20064;-61
2021/09/20 04:42:36;;;;;;;3.72;2.88;;;19.40;73.20;;;;;;4207140;28;20479;-61
2021/09/20 04:44:58;;;;;;;2.42;2.25;;;19.40;73.40;;;;;;4207576;28;20525;-59
2021/09/20 04:47:20;;;;;;;2.63;2.17;;;19.40;73.60;;;;;;4207725;28;20052;-59
2021/09/20 04:49:44;;;;;;;2.80;2.60;;;19.40;73.40;;;;;;4207543;28;20101;-60
2021/09/20 04:52:06;;;;;;;2.90;2.80;;;19.40;73.20;;;;;;4207156;28;20075;-60
2021/09/20 04:54:28;;;;;;;2.55;2.38;;;19.40;73.30;;;;;;4206987;28;20040;-60
2021/09/20 04:56:50;;;;;;;2.67;2.47;;;19.40;73.30;;;;;;4207165;28;20681;-60
2021/09/20 04:59:14;;;;;;;3.13;2.55;;;19.40;73.20;;;;;;4207027;28;20094;-60
2021/09/20 05:01:36;;;;;;;2.75;2.30;;;19.40;73.30;;;;;;4206949;28;20048;-60
2021/09/20 05:03:58;;;;;;;2.45;2.20;;;19.40;73.70;;;;;;4207103;28;20486;-60
2021/09/20 05:06:21;;;;;;;4.07;2.30;;;19.40;73.60;;;;;;4206163;28;20052;-61
2021/09/20 05:08:43;;;;;;;2.42;2.25;;;19.40;73.80;;;;;;4191829;28;20075;-61
2021/09/20 05:11:05;;;;;;;2.58;2.38;;;19.40;73.50;;;;;;4207181;28;20101;-59
2021/09/20 05:13:27;;;;;;;2.25;2.10;;;19.40;73.80;;;;;;4206683;28;20066;-60
2021/09/20 05:15:51;;;;;;;2.80;2.53;;;19.40;73.70;;;;;;4206183;28;20050;-60
2021/09/20 05:18:14;;;;;;;2.40;2.20;;;19.40;73.20;;;;;;4207575;28;20131;-60
2021/09/20 05:20:36;;;;;;;2.40;2.20;;;19.40;73.20;;;;;;4207471;28;20048;-60
2021/09/20 05:22:58;;;;;;;3.83;2.67;;;19.40;73.50;;;;;;4207103;28;20103;-58
2021/09/20 05:25:24;;;;;;;2.55;2.35;;;19.40;73.20;;;;;;4193300;28;20118;-60
2021/09/20 05:27:46;;;;;;;2.70;2.50;;;19.40;73.20;;;;;;4192537;28;20486;-60
2021/09/20 05:30:10;;;;;;;2.60;2.40;;;19.40;73.00;;;;;;4193763;28;20106;-60
2021/09/20 05:32:33;;;;;;;2.28;2.17;;;19.40;73.10;;;;;;4209878;28;20493;-60
2021/09/20 05:34:55;;;;;;;3.05;2.80;;;19.40;73.00;;;;;;4209580;28;20070;-60
2021/09/20 05:37:18;;;;;;;2.92;2.72;;;19.40;73.20;;;;;;4209829;28;20142;-60
2021/09/20 05:39:41;;;;;;;3.50;2.42;;;19.40;73.20;;;;;;4209751;28;20051;-60
2021/09/20 05:42:03;;;;;;;4.72;3.08;;;19.40;73.30;;;;;;4210141;28;20502;-60
2021/09/20 05:44:26;;;;;;;2.55;2.35;;;19.40;73.20;;;;;;4210102;28;20595;-60
2021/09/20 05:46:47;;;;;;;2.85;2.58;;;19.30;73.00;;;;;;4192038;28;20076;-60
2021/09/20 05:49:11;;;;;;;2.47;2.38;;;19.40;73.90;;;;;;4193361;28;20510;-60
2021/09/20 05:51:33;;;;;;;3.00;2.42;;;19.40;73.20;;;;;;4209576;28;20044;-61
2021/09/20 05:53:56;;;;;;;2.58;2.47;;;19.40;73.50;;;;;;4209332;28;20508;-57
2021/09/20 05:56:18;;;;;;;2.72;2.53;;;19.30;73.00;;;;;;4209202;28;20048;-60
2021/09/20 05:58:40;;;;;;;1.90;1.80;;;19.30;73.10;;;;;;4209419;28;20055;-61
2021/09/20 06:01:02;;;;;;;2.45;2.25;;;19.30;73.40;;;;;;4209628;28;20075;-60
2021/09/20 06:03:26;;;;;;;2.83;2.50;;;19.30;73.40;;;;;;4209386;28;20470;-60
2021/09/20 06:05:50;;;;;;;2.25;2.10;;;19.30;73.40;;;;;;4209311;28;20395;-60
2021/09/20 06:08:13;;;;;;;2.50;2.30;;;19.30;73.70;;;;;;4209175;28;20052;-61
2021/09/20 06:10:37;;;;;;;2.33;2.22;;;19.30;73.90;;;;;;4209547;28;20548;-61
2021/09/20 06:12:59;;;;;;;2.72;2.38;;;19.30;73.20;;;;;;4208736;28;20058;-61
2021/09/20 06:15:22;;;;;;;2.85;2.00;;;19.40;73.20;;;;;;4192661;28;20102;-61
2021/09/20 06:17:44;;;;;;;4.95;2.50;;;19.50;73.40;;;;;;4195666;28;20812;-61
2021/09/20 06:20:08;;;;;;;3.72;2.50;;;19.50;73.30;;;;;;4209209;28;20052;-61
2021/09/20 06:22:32;;;;;;;3.78;2.15;;;19.40;73.30;;;;;;4208472;28;20047;-62
2021/09/20 06:24:56;;;;;;;2.80;2.08;;;19.40;73.20;;;;;;4209096;28;20048;-62
2021/09/20 06:27:18;;;;;;;3.55;2.30;;;19.50;73.50;;;;;;4209114;28;20040;-62
2021/09/20 06:29:40;;;;;;;2.05;1.95;;;19.40;73.40;;;;;;4193274;28;20125;-63
2021/09/20 06:32:03;;;;;;;2.10;2.00;;;19.40;73.50;;;;;;4209180;28;20712;-64
2021/09/20 06:34:28;;;;;;;2.15;1.95;;;19.40;73.00;;;;;;4208364;28;20103;-63
2021/09/20 06:36:51;;;;;;;2.85;2.17;;;19.40;72.80;;;;;;4208660;28;20117;-62
2021/09/20 06:39:16;;;;;;;2.45;1.98;;;19.40;72.70;;;;;;4207483;28;20135;-64
2021/09/20 06:41:39;;;;;;;2.35;2.15;;;19.40;72.70;;;;;;4208843;28;20494;-61
2021/09/20 06:44:03;;;;;;;2.58;1.80;;;19.40;73.70;;;;;;4206341;28;20587;-60
2021/09/20 06:46:26;;;;;;;2.08;1.90;;;19.40;72.70;;;;;;4209092;28;20047;-60
2021/09/20 06:48:48;;;;;;;2.20;2.10;;;19.40;73.00;;;;;;4209242;28;20472;-61
2021/09/20 06:51:10;;;;;;;2.10;1.90;;;19.40;72.50;;;;;;4209114;28;20052;-61
2021/09/20 06:53:33;;;;;;;1.90;1.80;;;19.30;72.50;;;;;;4208616;28;20044;-60
2021/09/20 06:55:56;;;;;;;2.95;1.80;;;19.40;73.00;;;;;;4209621;28;20109;-60
2021/09/20 06:58:19;;;;;;;2.50;2.15;;;19.40;73.10;;;;;;4208247;28;20051;-58
2021/09/20 07:00:41;;;;;;;3.25;2.10;;;19.40;73.30;;;;;;4208583;28;20130;-60
2021/09/20 07:03:03;;;;;;;3.10;2.05;;;19.40;73.00;;;;;;4207968;28;20048;-59
2021/09/20 07:05:25;;;;;;;2.33;1.80;;;19.40;73.20;;;;;;4204088;28;20098;-60
2021/09/20 07:07:47;;;;;;;1.90;1.80;;;19.40;72.60;;;;;;4208010;28;20047;-60
2021/09/20 07:10:12;;;;;;;2.33;2.05;;;19.40;72.30;;;;;;4198427;28;20429;-61
2021/09/20 07:12:35;;;;;;;2.30;2.08;;;19.40;73.10;;;;;;4207688;28;20048;-60
2021/09/20 07:14:58;;;;;;;2.28;2.00;;;19.40;72.50;;;;;;4208630;28;20059;-63
2021/09/20 07:17:20;;;;;;;3.63;2.28;;;19.40;73.10;;;;;;4207424;28;20052;-61
2021/09/20 07:19:48;;;;;;;2.13;2.03;;;19.40;73.30;;;;;;4191485;28;20479;-61
2021/09/20 07:22:10;;;;;;;2.17;2.08;;;19.40;73.70;;;;;;4207909;28;20056;-60
2021/09/20 07:24:33;;;;;;;2.33;2.10;;;19.40;73.70;;;;;;4208123;28;20472;-60
2021/09/20 07:26:55;;;;;;;2.25;1.98;;;19.40;74.00;;;;;;4207636;28;20073;-61
2021/09/20 07:29:19;;;;;;;1.92;1.83;;;19.40;74.00;;;;;;4208038;28;20046;-60
2021/09/20 07:31:41;;;;;;;1.95;1.85;;;19.40;73.90;;;;;;4208000;28;20069;-60
2021/09/20 07:34:03;;;;;;;1.90;1.80;;;19.40;73.70;;;;;;4208036;28;20517;-60
2021/09/20 07:36:25;;;;;;;2.10;2.00;;;19.40;74.00;;;;;;4207908;28;20158;-59
2021/09/20 07:38:47;;;;;;;3.45;2.47;;;19.40;73.70;;;;;;4208137;28;20494;-61
2021/09/20 07:41:10;;;;;;;2.33;1.92;;;19.40;73.60;;;;;;4207777;28;20113;-60
2021/09/20 07:43:33;;;;;;;2.92;2.03;;;19.40;73.50;;;;;;4207943;28;20079;-60
2021/09/20 07:45:56;;;;;;;1.83;1.73;;;19.40;73.50;;;;;;4207531;28;20040;-60
2021/09/20 07:48:18;;;;;;;2.53;1.90;;;19.40;73.30;;;;;;4207704;28;20846;-61
2021/09/20 07:50:43;;;;;;;2.15;1.80;;;19.40;73.30;;;;;;4207734;28;20105;-61
2021/09/20 07:53:06;;;;;;;3.72;2.13;;;19.40;73.20;;;;;;4208091;28;20047;-60
2021/09/20 07:55:34;;;;;;;1.83;1.70;;;19.40;73.50;;;;;;4205434;28;20445;-60
2021/09/20 07:57:56;;;;;;;2.40;2.00;;;19.40;72.80;;;;;;4207044;28;20173;-60
2021/09/20 08:00:18;;;;;;;3.38;1.98;;;19.40;73.20;;;;;;4199505;28;20128;-60
2021/09/20 08:02:43;;;;;;;1.92;1.83;;;19.40;73.50;;;;;;4191162;28;20475;-61
2021/09/20 08:05:08;;;;;;;1.85;1.75;;;19.40;74.20;;;;;;4206935;28;20062;-59
2021/09/20 08:07:30;;;;;;;2.10;1.83;;;19.40;73.10;;;;;;4207717;28;20157;-60
2021/09/20 08:09:52;;;;;;;2.10;1.95;;;19.40;72.80;;;;;;4206902;28;20055;-60
2021/09/20 08:12:14;;;;;;;2.15;1.95;;;19.40;72.80;;;;;;4207340;28;20052;-60
2021/09/20 08:14:37;;;;;;;1.77;1.67;;;19.40;72.90;;;;;;4207087;28;20044;-60
2021/09/20 08:16:59;;;;;;;4.65;2.13;;;19.40;72.40;;;;;;4190730;28;20044;-60
2021/09/20 08:19:23;;;;;;;2.10;1.75;;;19.40;72.40;;;;;;4194736;28;20051;-61
2021/09/20 08:21:45;;;;;;;1.95;1.83;;;19.40;71.80;;;;;;4207403;28;20051;-60
2021/09/20 08:24:08;;;;;;;2.40;2.15;;;19.40;72.40;;;;;;4207021;28;20048;-60
2021/09/20 08:26:30;;;;;;;1.80;1.70;;;19.40;72.20;;;;;;4207245;28;20112;-60
2021/09/20 08:28:52;;;;;;;4.13;1.67;;;19.40;71.60;;;;;;4206829;28;20052;-61
2021/09/20 08:31:15;;;;;;;2.70;1.50;;;19.40;71.90;;;;;;4207316;28;20048;-61
2021/09/20 08:33:37;;;;;;;2.13;1.60;;;19.40;72.30;;;;;;4207035;28;20044;-60
2021/09/20 08:36:01;;;;;;;1.67;1.58;;;19.40;72.30;;;;;;4207365;28;20498;-60
2021/09/20 08:38:22;;;;;;;2.58;1.70;;;19.40;72.80;;;;;;4206674;28;20036;-60
2021/09/20 08:40:44;;;;;;;1.90;1.50;;;19.40;72.40;;;;;;4206789;28;20421;-60
2021/09/20 08:43:06;;;;;;;2.88;2.03;;;19.40;72.10;;;;;;4207081;28;20056;-60
2021/09/20 08:45:30;;;;;;;3.03;1.88;;;19.40;71.60;;;;;;4207501;28;20497;-59
2021/09/20 08:47:55;;;;;;;5.20;1.92;;;19.40;71.40;;;;;;4206241;28;20501;-60
2021/09/20 08:50:22;;;;;;;1.67;1.58;;;19.40;71.20;;;;;;4207506;28;20044;-59
2021/09/20 08:52:46;;;;;;;2.45;1.58;;;19.40;69.90;;;;;;4207645;28;20536;-59
2021/09/20 08:55:09;;;;;;;3.95;1.92;;;19.40;71.00;;;;;;4207449;28;20125;-60
2021/09/20 08:57:31;;;;;;;1.60;1.50;;;19.40;71.00;;;;;;4204342;28;20449;-60
2021/09/20 08:59:54;;;;;;;1.77;1.67;;;19.40;71.30;;;;;;4210367;28;20409;-60
2021/09/20 09:02:18;;;;;;;1.75;1.60;;;19.40;70.90;;;;;;4210220;28;20055;-61
2021/09/20 09:04:41;;;;;;;3.42;2.00;;;19.40;71.20;;;;;;4210261;28;20851;-60
2021/09/20 09:07:07;;;;;;;1.77;1.67;;;19.50;72.10;;;;;;4210023;28;20051;-60
2021/09/20 09:09:32;;;;;;;1.67;1.58;;;19.40;71.00;;;;;;4210247;28;20503;-59
2021/09/20 09:12:11;;;;;;;1.90;1.60;;;19.50;70.90;;;;;;4210037;28;20068;-60
2021/09/20 09:14:39;;;;;;;2.00;1.52;;;19.40;70.70;;;;;;4209448;28;20044;-60
2021/09/20 09:17:01;;;;;;;2.67;1.70;;;19.50;71.00;;;;;;4209410;28;20044;-60
2021/09/20 09:19:23;;;;;;;2.28;1.30;;;19.40;70.90;;;;;;4207696;28;20608;-60
2021/09/20 09:21:46;;;;;;;1.83;1.73;;;19.50;70.80;;;;;;4193715;28;20452;-60
2021/09/20 09:24:10;;;;;;;1.63;1.48;;;19.50;70.80;;;;;;4197380;28;20628;-60
2021/09/20 09:26:34;;;;;;;1.90;1.58;;;19.50;71.00;;;;;;4210563;28;20140;-60
2021/09/20 09:29:10;;;;;;;3.17;1.83;;;19.50;71.30;;;;;;4210649;28;20044;-61
2021/09/20 09:31:35;;;;;;;1.58;1.30;;;19.50;70.90;;;;;;4210139;28;20139;-60
2021/09/20 09:33:57;;;;;;;2.28;1.83;;;19.50;70.80;;;;;;4210081;28;20229;-60
2021/09/20 09:36:19;;;;;;;2.05;1.90;;;19.50;70.60;;;;;;4210193;28;20065;-61
2021/09/20 09:38:57;;;;;;;1.67;1.58;;;19.50;70.80;;;;;;4209809;28;20789;-60
2021/09/20 09:41:34;;;;;;;1.50;1.40;;;19.50;69.10;;;;;;4208185;28;20051;-60
2021/09/20 09:44:03;;;;;;;1.02;1.02;;;19.50;69.60;;;;;;4209909;28;20054;-60
2021/09/20 09:46:26;;;;;;;2.33;1.80;;;19.60;70.00;;;;;;4209800;28;20526;-60
2021/09/20 09:48:49;;;;;;;2.30;1.45;;;19.60;71.60;;;;;;4207912;28;20138;-61
2021/09/20 09:51:11;;;;;;;2.10;1.60;;;19.60;70.10;;;;;;4209362;28;20055;-61
2021/09/20 09:53:36;;;;;;;1.40;1.30;;;19.60;68.40;;;;;;4209740;28;20060;-59
2021/09/20 09:56:00;;;;;;;2.88;1.42;;;19.60;69.30;;;;;;4205610;28;20059;-61
2021/09/20 09:58:25;;;;;;;1.10;1.10;;;19.60;69.40;;;;;;4209789;28;20413;-61
2021/09/20 10:00:48;;;;;;;1.40;1.30;;;19.60;69.30;;;;;;4209563;28;20064;-61
2021/09/20 10:03:11;;;;;;;1.40;1.30;;;19.60;69.40;;;;;;4209954;28;20151;-60
2021/09/20 10:05:33;;;;;;;3.17;1.40;;;19.60;68.90;;;;;;4209625;28;20051;-60
2021/09/20 10:07:55;;;;;;;2.63;1.63;;;19.70;69.20;;;;;;4209384;28;20497;-60
2021/09/20 10:10:19;;;;;;;2.45;1.40;;;19.70;69.60;;;;;;4208225;28;20145;-59
2021/09/20 10:12:43;;;;;;;2.40;1.40;;;19.70;69.80;;;;;;4208265;28;20359;-60
2021/09/20 10:15:08;;;;;;;2.15;1.13;;;19.70;69.50;;;;;;4209258;28;20143;-60
2021/09/20 10:17:31;;;;;;;2.45;1.38;;;19.70;69.00;;;;;;4209583;28;20518;-61
2021/09/20 10:19:55;;;;;;;1.52;1.42;;;19.70;68.90;;;;;;4209355;28;20051;-60
2021/09/20 10:22:17;;;;;;;2.03;1.38;;;19.70;68.10;;;;;;4207221;28;20044;-58
2021/09/20 10:24:40;;;;;;;2.35;1.52;;;19.70;66.80;;;;;;4206938;28;20501;-59
2021/09/20 10:27:02;;;;;;;2.58;1.52;;;19.80;62.60;;;;;;4193784;28;20045;-59
2021/09/20 10:29:25;;;;;;;3.35;1.30;;;19.80;63.80;;;;;;4203013;28;20044;-59
2021/09/20 10:31:49;;;;;;;2.65;1.52;;;19.80;66.80;;;;;;4209228;28;20056;-59
2021/09/20 10:34:28;;;;;;;1.70;1.60;;;19.80;66.40;;;;;;4208861;28;20048;-58
2021/09/20 10:36:53;;;;;;;1.55;1.30;;;19.80;65.60;;;;;;4208587;28;20772;-60
2021/09/20 10:39:15;;;;;;;1.23;1.10;;;19.80;66.80;;;;;;4209205;28;22040;-59
2021/09/20 10:41:39;;;;;;;1.20;1.10;;;19.80;66.50;;;;;;4208509;28;20132;-58
2021/09/20 10:44:09;;;;;;;2.95;1.15;;;19.80;64.10;;;;;;4192282;28;20478;-59
2021/09/20 10:46:33;;;;;;;2.05;1.10;;;19.80;63.80;;;;;;4192233;28;20059;-59
2021/09/20 10:48:59;;;;;;;1.95;1.38;;;19.80;66.30;;;;;;4192054;28;20149;-59
2021/09/20 10:51:25;;;;;;;2.28;1.38;;;19.80;65.30;;;;;;4202567;28;20063;-59
2021/09/20 10:53:48;;;;;;;2.47;1.20;;;19.80;61.50;;;;;;4208453;28;20454;-59
2021/09/20 10:56:23;;;;;;;1.48;0.95;;;19.80;62.60;;;;;;4209069;28;20135;-59
2021/09/20 10:59:14;;;;;;;0.90;0.70;;;19.80;63.20;;;;;;4208341;28;20048;-61
2021/09/20 11:01:37;;;;;;;1.77;1.02;;;19.90;63.10;;;;;;4208809;28;20044;-59
2021/09/20 11:04:03;;;;;;;1.88;1.05;;;19.80;64.20;;;;;;4208823;28;20139;-59
2021/09/20 11:06:27;;;;;;;1.33;1.08;;;19.90;63.20;;;;;;4208844;28;20036;-60
2021/09/20 11:09:09;;;;;;;1.17;0.95;;;19.90;64.30;;;;;;4206164;28;20509;-59
2021/09/20 11:11:41;;;;;;;2.65;0.80;;;19.90;65.40;;;;;;4208928;28;20490;-60
2021/09/20 11:14:09;;;;;;;1.52;0.90;;;19.90;61.30;;;;;;4208593;28;20109;-60
2021/09/20 11:16:50;;;;;;;0.90;0.90;;;19.90;60.40;;;;;;4208463;28;20550;-61
2021/09/20 11:19:41;;;;;;;1.33;1.23;;;19.90;61.70;;;;;;4208691;28;20166;-59
2021/09/20 11:22:24;;;;;;;1.00;1.00;;;19.90;61.10;;;;;;4208194;28;20056;-59
2021/09/20 11:24:48;;;;;;;1.75;1.00;;;19.90;58.50;;;;;;4208608;28;20094;-59
2021/09/20 11:27:14;;;;;;;0.63;0.55;;;19.90;61.60;;;;;;4208231;28;20410;-59
2021/09/20 11:29:36;;;;;;;1.00;0.70;;;19.90;61.90;;;;;;4208540;28;20127;-60
2021/09/20 11:32:05;;;;;;;1.30;0.80;;;19.90;64.40;;;;;;4208617;28;20055;-60
2021/09/20 11:34:33;;;;;;;0.80;0.80;;;19.90;62.40;;;;;;4208463;28;20448;-59
2021/09/20 11:37:08;;;;;;;0.68;0.68;;;19.90;63.70;;;;;;4207201;28;20051;-60
2021/09/20 11:39:30;;;;;;;1.02;0.98;;;19.90;64.10;;;;;;4202760;28;20140;-59
2021/09/20 11:42:01;;;;;;;1.10;0.88;;;20.00;61.10;;;;;;4208274;28;20059;-59
2021/09/20 11:44:28;;;;;;;0.70;0.70;;;20.00;63.20;;;;;;4208352;28;20047;-59
2021/09/20 11:46:50;;;;;;;1.20;0.80;;;20.00;61.10;;;;;;4207815;28;20409;-59
2021/09/20 11:49:16;;;;;;;1.50;0.55;;;20.00;61.60;;;;;;4208330;28;20101;-59
2021/09/20 11:51:39;;;;;;;0.82;0.82;;;20.00;60.60;;;;;;4191217;28;20398;-59
2021/09/20 11:54:05;;;;;;;1.95;0.85;;;20.00;58.50;;;;;;4190197;28;20092;-59
2021/09/20 11:56:28;;;;;;;0.80;0.80;;;20.00;58.10;;;;;;4207641;28;20094;-60
2021/09/20 11:58:52;;;;;;;0.90;0.75;;;20.00;57.30;;;;;;4207599;28;20079;-60
2021/09/20 12:01:21;;;;;;;1.67;0.77;;;20.00;59.80;;;;;;4207909;28;20047;-60
2021/09/20 12:03:49;;;;;;;1.70;0.73;;;20.00;59.70;;;;;;4207927;28;20059;-60
2021/09/20 12:06:12;;;;;;;1.02;1.02;;;20.00;58.20;;;;;;4207147;28;20036;-58
2021/09/20 12:08:36;;;;;;;0.90;0.90;;;20.10;56.30;;;;;;4206833;28;20391;-58
2021/09/20 12:11:00;;;;;;;2.10;0.85;;;20.10;57.00;;;;;;4205378;28;20059;-60
2021/09/20 12:13:24;;;;;;;1.75;1.02;;;20.10;58.50;;;;;;4207156;28;20059;-58
2021/09/20 12:15:48;;;;;;;0.80;0.80;;;20.20;58.90;;;;;;4207679;28;20044;-60
2021/09/20 12:18:13;;;;;;;1.35;0.70;;;20.20;57.70;;;;;;4207780;28;20093;-59
2021/09/20 12:20:38;;;;;;;1.77;1.08;;;20.20;58.10;;;;;;4207531;28;20052;-59
2021/09/20 12:23:02;;;;;;;1.17;0.80;;;20.20;56.30;;;;;;4207445;28;20059;-59
2021/09/20 12:25:42;;;;;;;1.25;0.85;;;20.20;57.20;;;;;;4207984;28;20051;-59
2021/09/20 12:28:06;;;;;;;1.10;1.10;;;20.20;55.40;;;;;;4207084;28;20078;-59
2021/09/20 12:30:30;;;;;;;0.80;0.80;;;20.20;57.80;;;;;;4207296;28;20044;-59